sensor_id;sensor_type;location;lat;lon;timestamp;temperature;humidity
11089;DHT22;5598;48.648;8.908;2023-02-11T00:01:59;-3.00;99.30
11089;DHT22;5598;48.648;8.908;2023-02-11T00:04:26;-3.00;99.70
11089;DHT22;5598;48.648;8.908;2023-02-11T00:06:52;-2.90;99.90
11089;DHT22;5598;48.648;8.908;2023-02-11T00:09:19;-2.90;99.90
11089;DHT22;5598;48.648;8.908;2023-02-11T00:11:47;-2.90;99.90
11089;DHT22;5598;48.648;8.908;2023-02-11T00:14:14;-3.00;99.80
11089;DHT22;5598;48.648;8.908;2023-02-11T00:16:41;-3.10;99.90
11089;DHT22;5598;48.648;8.908;2023-02-11T00:19:08;-3.10;99.90
11089;DHT22;5598;48.648;8.908;2023-02-11T00:21:35;-3.10;99.90
11089;DHT22;5598;48.648;8.908;2023-02-11T00:24:02;-3.20;99.90
11089;DHT22;5598;48.648;8.908;2023-02-11T00:26:31;-3.20;99.90
11089;DHT22;5598;48.648;8.908;2023-02-11T00:29:00;-3.20;99.90
11089;DHT22;5598;48.648;8.908;2023-02-11T00:31:27;-3.20;99.90
11089;DHT22;5598;48.648;8.908;2023-02-11T00:33:54;-3.20;99.90
11089;DHT22;5598;48.648;8.908;2023-02-11T00:36:23;-3.20;99.90
11089;DHT22;5598;48.648;8.908;2023-02-11T00:38:52;-3.20;99.90
11089;DHT22;5598;48.648;8.908;2023-02-11T00:41:19;-3.20;99.90
11089;DHT22;5598;48.648;8.908;2023-02-11T00:43:47;-3.20;99.90
11089;DHT22;5598;48.648;8.908;2023-02-11T00:46:15;-3.10;99.90
11089;DHT22;5598;48.648;8.908;2023-02-11T00:48:42;-3.00;99.90
11089;DHT22;5598;48.648;8.908;2023-02-11T00:51:09;-3.00;99.70
11089;DHT22;5598;48.648;8.908;2023-02-11T00:53:36;-3.10;99.60
11089;DHT22;5598;48.648;8.908;2023-02-11T00:56:04;-3.10;99.40
11089;DHT22;5598;48.648;8.908;2023-02-11T00:58:31;-3.20;99.30
11089;DHT22;5598;48.648;8.908;2023-02-11T01:00:58;-3.20;99.30
11089;DHT22;5598;48.648;8.908;2023-02-11T01:03:26;-3.10;99.90
11089;DHT22;5598;48.648;8.908;2023-02-11T01:05:53;-3.10;99.90
11089;DHT22;5598;48.648;8.908;2023-02-11T01:08:20;-3.20;99.80
11089;DHT22;5598;48.648;8.908;2023-02-11T01:10:53;-3.20;99.80
11089;DHT22;5598;48.648;8.908;2023-02-11T01:13:20;-3.30;99.60
11089;DHT22;5598;48.648;8.908;2023-02-11T01:15:47;-3.20;99.90
11089;DHT22;5598;48.648;8.908;2023-02-11T01:18:14;-3.10;99.90
11089;DHT22;5598;48.648;8.908;2023-02-11T01:20:42;-3.00;99.90
11089;DHT22;5598;48.648;8.908;2023-02-11T01:23:09;-2.90;99.90
11089;DHT22;5598;48.648;8.908;2023-02-11T01:25:36;-2.80;99.90
11089;DHT22;5598;48.648;8.908;2023-02-11T01:28:03;-2.80;99.90
11089;DHT22;5598;48.648;8.908;2023-02-11T01:30:30;-2.80;99.90
11089;DHT22;5598;48.648;8.908;2023-02-11T01:32:57;-3.00;99.90
11089;DHT22;5598;48.648;8.908;2023-02-11T01:35:24;-3.10;99.90
11089;DHT22;5598;48.648;8.908;2023-02-11T01:37:52;-2.90;99.90
11089;DHT22;5598;48.648;8.908;2023-02-11T01:40:19;-3.00;99.90
11089;DHT22;5598;48.648;8.908;2023-02-11T01:42:46;-3.00;99.90
11089;DHT22;5598;48.648;8.908;2023-02-11T01:45:48;-3.00;99.90
11089;DHT22;5598;48.648;8.908;2023-02-11T01:48:19;-3.00;99.90
11089;DHT22;5598;48.648;8.908;2023-02-11T01:50:49;-3.00;99.90
11089;DHT22;5598;48.648;8.908;2023-02-11T01:53:20;-2.90;99.90
11089;DHT22;5598;48.648;8.908;2023-02-11T01:56:05;-3.00;99.90
11089;DHT22;5598;48.648;8.908;2023-02-11T01:58:50;-3.00;99.90
11089;DHT22;5598;48.648;8.908;2023-02-11T02:01:22;-3.00;99.90
11089;DHT22;5598;48.648;8.908;2023-02-11T02:03:53;-3.00;99.90
11089;DHT22;5598;48.648;8.908;2023-02-11T02:06:25;-2.80;99.90
11089;DHT22;5598;48.648;8.908;2023-02-11T02:09:02;-2.80;99.90
11089;DHT22;5598;48.648;8.908;2023-02-11T02:11:32;-2.80;99.90
11089;DHT22;5598;48.648;8.908;2023-02-11T02:13:58;-2.80;99.90
11089;DHT22;5598;48.648;8.908;2023-02-11T02:16:29;-2.80;99.90
11089;DHT22;5598;48.648;8.908;2023-02-11T02:19:09;-2.80;99.90
11089;DHT22;5598;48.648;8.908;2023-02-11T02:21:56;-2.70;99.90
11089;DHT22;5598;48.648;8.908;2023-02-11T02:24:56;-2.60;99.90
11089;DHT22;5598;48.648;8.908;2023-02-11T02:27:35;-2.50;99.90
11089;DHT22;5598;48.648;8.908;2023-02-11T02:30:38;-2.40;99.90
11089;DHT22;5598;48.648;8.908;2023-02-11T02:33:25;-2.40;99.90
11089;DHT22;5598;48.648;8.908;2023-02-11T02:36:04;-2.40;99.90
11089;DHT22;5598;48.648;8.908;2023-02-11T02:38:37;-2.40;99.90
11089;DHT22;5598;48.648;8.908;2023-02-11T02:41:08;-2.40;99.90
11089;DHT22;5598;48.648;8.908;2023-02-11T02:43:39;-2.60;99.90
11089;DHT22;5598;48.648;8.908;2023-02-11T02:46:10;-2.70;99.90
11089;DHT22;5598;48.648;8.908;2023-02-11T02:48:39;-2.60;99.90
11089;DHT22;5598;48.648;8.908;2023-02-11T02:51:24;-2.60;99.90
11089;DHT22;5598;48.648;8.908;2023-02-11T02:54:01;-2.60;99.90
11089;DHT22;5598;48.648;8.908;2023-02-11T02:56:38;-2.70;99.90
11089;DHT22;5598;48.648;8.908;2023-02-11T02:59:23;-2.80;99.90
11089;DHT22;5598;48.648;8.908;2023-02-11T03:01:56;-2.90;99.90
11089;DHT22;5598;48.648;8.908;2023-02-11T03:04:33;-2.80;99.90
11089;DHT22;5598;48.648;8.908;2023-02-11T03:07:06;-2.70;99.90
11089;DHT22;5598;48.648;8.908;2023-02-11T03:09:38;-2.60;99.90
11089;DHT22;5598;48.648;8.908;2023-02-11T03:12:06;-2.60;99.90
11089;DHT22;5598;48.648;8.908;2023-02-11T03:14:35;-2.60;99.90
11089;DHT22;5598;48.648;8.908;2023-02-11T03:17:03;-2.70;99.90
11089;DHT22;5598;48.648;8.908;2023-02-11T03:19:37;-2.80;99.90
11089;DHT22;5598;48.648;8.908;2023-02-11T03:22:08;-2.80;99.90
11089;DHT22;5598;48.648;8.908;2023-02-11T03:24:38;-2.90;99.90
11089;DHT22;5598;48.648;8.908;2023-02-11T03:27:11;-2.80;99.90
11089;DHT22;5598;48.648;8.908;2023-02-11T03:29:44;-2.80;99.90
11089;DHT22;5598;48.648;8.908;2023-02-11T03:32:17;-2.90;99.90
11089;DHT22;5598;48.648;8.908;2023-02-11T03:34:49;-3.00;99.90
11089;DHT22;5598;48.648;8.908;2023-02-11T03:37:21;-3.10;99.90
11089;DHT22;5598;48.648;8.908;2023-02-11T03:39:53;-3.10;99.90
11089;DHT22;5598;48.648;8.908;2023-02-11T03:42:22;-3.00;99.90
11089;DHT22;5598;48.648;8.908;2023-02-11T03:44:56;-3.00;99.90
11089;DHT22;5598;48.648;8.908;2023-02-11T03:47:26;-3.00;99.90
11089;DHT22;5598;48.648;8.908;2023-02-11T03:49:57;-2.90;99.90
11089;DHT22;5598;48.648;8.908;2023-02-11T03:52:25;-3.00;99.90
11089;DHT22;5598;48.648;8.908;2023-02-11T03:54:54;-3.20;99.90
11089;DHT22;5598;48.648;8.908;2023-02-11T03:57:22;-3.30;99.90
11089;DHT22;5598;48.648;8.908;2023-02-11T03:59:50;-3.20;99.90
11089;DHT22;5598;48.648;8.908;2023-02-11T04:02:17;-3.20;99.90
11089;DHT22;5598;48.648;8.908;2023-02-11T04:04:44;-3.10;99.90
11089;DHT22;5598;48.648;8.908;2023-02-11T04:07:13;-3.10;99.90
11089;DHT22;5598;48.648;8.908;2023-02-11T04:09:41;-3.00;99.90
11089;DHT22;5598;48.648;8.908;2023-02-11T04:12:08;-3.00;99.90
11089;DHT22;5598;48.648;8.908;2023-02-11T04:14:35;-3.10;99.90
11089;DHT22;5598;48.648;8.908;2023-02-11T04:17:02;-3.00;99.90
11089;DHT22;5598;48.648;8.908;2023-02-11T04:19:29;-3.00;99.90
11089;DHT22;5598;48.648;8.908;2023-02-11T04:21:55;-2.90;99.90
11089;DHT22;5598;48.648;8.908;2023-02-11T04:24:24;-2.90;99.90
11089;DHT22;5598;48.648;8.908;2023-02-11T04:26:50;-2.90;99.90
11089;DHT22;5598;48.648;8.908;2023-02-11T04:29:17;-2.80;99.90
11089;DHT22;5598;48.648;8.908;2023-02-11T04:31:44;-2.70;99.90
11089;DHT22;5598;48.648;8.908;2023-02-11T04:34:12;-2.60;99.90
11089;DHT22;5598;48.648;8.908;2023-02-11T04:36:38;-2.30;99.90
11089;DHT22;5598;48.648;8.908;2023-02-11T04:39:06;-2.20;99.90
11089;DHT22;5598;48.648;8.908;2023-02-11T04:41:34;-2.10;99.90
11089;DHT22;5598;48.648;8.908;2023-02-11T04:44:01;-2.20;99.90
11089;DHT22;5598;48.648;8.908;2023-02-11T04:46:27;-2.20;99.90
11089;DHT22;5598;48.648;8.908;2023-02-11T04:48:55;-2.20;99.90
11089;DHT22;5598;48.648;8.908;2023-02-11T04:51:22;-2.10;99.90
11089;DHT22;5598;48.648;8.908;2023-02-11T04:53:49;-2.10;99.90
11089;DHT22;5598;48.648;8.908;2023-02-11T04:56:15;-2.10;99.90
11089;DHT22;5598;48.648;8.908;2023-02-11T04:58:43;-2.20;99.90
11089;DHT22;5598;48.648;8.908;2023-02-11T05:01:12;-2.20;99.90
11089;DHT22;5598;48.648;8.908;2023-02-11T05:03:40;-2.10;99.90
11089;DHT22;5598;48.648;8.908;2023-02-11T05:06:07;-2.00;99.90
11089;DHT22;5598;48.648;8.908;2023-02-11T05:08:35;-2.00;99.90
11089;DHT22;5598;48.648;8.908;2023-02-11T05:11:02;-1.90;99.90
11089;DHT22;5598;48.648;8.908;2023-02-11T05:13:29;-1.90;99.90
11089;DHT22;5598;48.648;8.908;2023-02-11T05:15:58;-1.80;99.90
11089;DHT22;5598;48.648;8.908;2023-02-11T05:18:25;-1.80;99.90
11089;DHT22;5598;48.648;8.908;2023-02-11T05:20:51;-1.70;99.90
11089;DHT22;5598;48.648;8.908;2023-02-11T05:23:18;-1.60;99.90
11089;DHT22;5598;48.648;8.908;2023-02-11T05:25:45;-1.70;99.90
11089;DHT22;5598;48.648;8.908;2023-02-11T05:28:11;-1.80;99.90
11089;DHT22;5598;48.648;8.908;2023-02-11T05:30:38;-1.80;99.90
11089;DHT22;5598;48.648;8.908;2023-02-11T05:33:06;-1.80;99.90
11089;DHT22;5598;48.648;8.908;2023-02-11T05:35:33;-1.80;99.90
11089;DHT22;5598;48.648;8.908;2023-02-11T05:38:00;-1.70;99.90
11089;DHT22;5598;48.648;8.908;2023-02-11T05:40:26;-1.70;99.90
11089;DHT22;5598;48.648;8.908;2023-02-11T05:42:53;-1.70;99.90
11089;DHT22;5598;48.648;8.908;2023-02-11T05:45:20;-1.70;99.90
11089;DHT22;5598;48.648;8.908;2023-02-11T05:47:47;-1.70;99.90
11089;DHT22;5598;48.648;8.908;2023-02-11T05:50:15;-1.70;99.90
11089;DHT22;5598;48.648;8.908;2023-02-11T05:52:42;-1.70;99.90
11089;DHT22;5598;48.648;8.908;2023-02-11T05:55:09;-1.70;99.90
11089;DHT22;5598;48.648;8.908;2023-02-11T05:57:35;-1.80;99.90
11089;DHT22;5598;48.648;8.908;2023-02-11T06:00:03;-1.80;99.90
11089;DHT22;5598;48.648;8.908;2023-02-11T06:02:31;-1.90;99.90
11089;DHT22;5598;48.648;8.908;2023-02-11T06:04:58;-1.90;99.90
11089;DHT22;5598;48.648;8.908;2023-02-11T06:07:26;-1.90;99.90
11089;DHT22;5598;48.648;8.908;2023-02-11T06:09:53;-1.90;99.90
11089;DHT22;5598;48.648;8.908;2023-02-11T06:12:20;-1.90;99.90
11089;DHT22;5598;48.648;8.908;2023-02-11T06:14:46;-1.90;99.90
11089;DHT22;5598;48.648;8.908;2023-02-11T06:17:13;-1.90;99.90
11089;DHT22;5598;48.648;8.908;2023-02-11T06:19:40;-1.80;99.90
11089;DHT22;5598;48.648;8.908;2023-02-11T06:22:07;-1.70;99.90
11089;DHT22;5598;48.648;8.908;2023-02-11T06:24:35;-1.70;99.90
11089;DHT22;5598;48.648;8.908;2023-02-11T06:27:02;-1.70;99.90
11089;DHT22;5598;48.648;8.908;2023-02-11T06:29:29;-1.70;99.90
11089;DHT22;5598;48.648;8.908;2023-02-11T06:31:56;-1.60;99.90
11089;DHT22;5598;48.648;8.908;2023-02-11T06:34:23;-1.60;99.90
11089;DHT22;5598;48.648;8.908;2023-02-11T06:36:50;-1.60;99.90
11089;DHT22;5598;48.648;8.908;2023-02-11T06:39:16;-1.70;99.90
11089;DHT22;5598;48.648;8.908;2023-02-11T06:41:45;-1.70;99.90
11089;DHT22;5598;48.648;8.908;2023-02-11T06:44:11;-1.70;99.90
11089;DHT22;5598;48.648;8.908;2023-02-11T06:46:38;-1.80;99.90
11089;DHT22;5598;48.648;8.908;2023-02-11T06:49:05;-1.80;99.90
11089;DHT22;5598;48.648;8.908;2023-02-11T06:51:32;-1.70;99.90
11089;DHT22;5598;48.648;8.908;2023-02-11T06:53:58;-1.60;99.90
11089;DHT22;5598;48.648;8.908;2023-02-11T06:56:25;-1.60;99.90
11089;DHT22;5598;48.648;8.908;2023-02-11T06:58:54;-1.50;99.90
11089;DHT22;5598;48.648;8.908;2023-02-11T07:01:22;-1.40;99.90
11089;DHT22;5598;48.648;8.908;2023-02-11T07:03:49;-1.30;99.90
11089;DHT22;5598;48.648;8.908;2023-02-11T07:06:18;-1.20;99.90
11089;DHT22;5598;48.648;8.908;2023-02-11T07:08:46;-1.10;99.90
11089;DHT22;5598;48.648;8.908;2023-02-11T07:11:16;-1.00;99.90
11089;DHT22;5598;48.648;8.908;2023-02-11T07:13:43;-1.10;99.90
11089;DHT22;5598;48.648;8.908;2023-02-11T07:16:13;-1.00;99.90
11089;DHT22;5598;48.648;8.908;2023-02-11T07:18:40;-0.90;99.90
11089;DHT22;5598;48.648;8.908;2023-02-11T07:21:09;-0.90;99.90
11089;DHT22;5598;48.648;8.908;2023-02-11T07:23:37;-0.90;99.90
11089;DHT22;5598;48.648;8.908;2023-02-11T07:26:06;-0.80;99.90
11089;DHT22;5598;48.648;8.908;2023-02-11T07:28:34;-0.70;99.90
11089;DHT22;5598;48.648;8.908;2023-02-11T07:31:05;-0.60;99.90
11089;DHT22;5598;48.648;8.908;2023-02-11T07:33:33;-0.70;99.90
11089;DHT22;5598;48.648;8.908;2023-02-11T07:36:01;-0.90;99.90
11089;DHT22;5598;48.648;8.908;2023-02-11T07:38:27;-1.00;99.90
11089;DHT22;5598;48.648;8.908;2023-02-11T07:40:58;-1.00;99.90
11089;DHT22;5598;48.648;8.908;2023-02-11T07:43:25;-1.00;99.90
11089;DHT22;5598;48.648;8.908;2023-02-11T07:45:52;-1.00;99.90
11089;DHT22;5598;48.648;8.908;2023-02-11T07:48:19;-0.90;99.90
11089;DHT22;5598;48.648;8.908;2023-02-11T07:50:47;-0.80;99.90
11089;DHT22;5598;48.648;8.908;2023-02-11T07:53:14;-0.70;99.90
11089;DHT22;5598;48.648;8.908;2023-02-11T07:55:41;-0.50;99.90
11089;DHT22;5598;48.648;8.908;2023-02-11T07:58:08;-0.30;99.90
11089;DHT22;5598;48.648;8.908;2023-02-11T08:00:35;-0.40;99.90
11089;DHT22;5598;48.648;8.908;2023-02-11T08:03:02;-0.50;99.90
11089;DHT22;5598;48.648;8.908;2023-02-11T08:05:29;-0.50;99.90
11089;DHT22;5598;48.648;8.908;2023-02-11T08:07:57;-0.50;99.90
11089;DHT22;5598;48.648;8.908;2023-02-11T08:10:24;-0.40;99.90
11089;DHT22;5598;48.648;8.908;2023-02-11T08:12:51;0.30;99.90
11089;DHT22;5598;48.648;8.908;2023-02-11T08:15:19;1.10;99.90
11089;DHT22;5598;48.648;8.908;2023-02-11T08:17:45;1.30;99.90
11089;DHT22;5598;48.648;8.908;2023-02-11T08:20:12;1.70;99.90
11089;DHT22;5598;48.648;8.908;2023-02-11T08:22:40;2.40;99.90
11089;DHT22;5598;48.648;8.908;2023-02-11T08:25:08;3.20;98.20
11089;DHT22;5598;48.648;8.908;2023-02-11T08:27:35;3.60;97.60
11089;DHT22;5598;48.648;8.908;2023-02-11T08:30:02;4.00;96.20
11089;DHT22;5598;48.648;8.908;2023-02-11T08:32:29;4.20;95.00
11089;DHT22;5598;48.648;8.908;2023-02-11T08:34:56;4.30;95.00
11089;DHT22;5598;48.648;8.908;2023-02-11T08:37:22;4.20;94.20
11089;DHT22;5598;48.648;8.908;2023-02-11T08:39:49;3.60;94.10
11089;DHT22;5598;48.648;8.908;2023-02-11T08:42:17;2.80;95.40
11089;DHT22;5598;48.648;8.908;2023-02-11T08:44:44;3.00;95.30
11089;DHT22;5598;48.648;8.908;2023-02-11T08:47:11;3.20;95.40
11089;DHT22;5598;48.648;8.908;2023-02-11T08:49:37;2.50;95.60
11089;DHT22;5598;48.648;8.908;2023-02-11T08:52:06;2.10;96.70
11089;DHT22;5598;48.648;8.908;2023-02-11T08:54:33;1.90;97.70
11089;DHT22;5598;48.648;8.908;2023-02-11T08:57:00;2.00;97.90
11089;DHT22;5598;48.648;8.908;2023-02-11T08:59:28;1.80;98.00
11089;DHT22;5598;48.648;8.908;2023-02-11T09:01:55;1.70;98.40
11089;DHT22;5598;48.648;8.908;2023-02-11T09:04:22;1.80;99.40
11089;DHT22;5598;48.648;8.908;2023-02-11T09:06:49;2.10;99.10
11089;DHT22;5598;48.648;8.908;2023-02-11T09:09:16;2.50;98.70
11089;DHT22;5598;48.648;8.908;2023-02-11T09:11:44;3.50;98.70
11089;DHT22;5598;48.648;8.908;2023-02-11T09:14:16;4.20;96.60
11089;DHT22;5598;48.648;8.908;2023-02-11T09:16:45;5.30;96.60
11089;DHT22;5598;48.648;8.908;2023-02-11T09:19:11;6.40;93.80
11089;DHT22;5598;48.648;8.908;2023-02-11T09:21:38;7.00;92.00
11089;DHT22;5598;48.648;8.908;2023-02-11T09:24:06;7.70;91.70
11089;DHT22;5598;48.648;8.908;2023-02-11T09:26:34;8.60;90.30
11089;DHT22;5598;48.648;8.908;2023-02-11T09:29:02;8.70;87.00
11089;DHT22;5598;48.648;8.908;2023-02-11T09:31:30;8.90;84.30
11089;DHT22;5598;48.648;8.908;2023-02-11T09:34:01;9.20;85.30
11089;DHT22;5598;48.648;8.908;2023-02-11T09:36:30;9.00;82.50
11089;DHT22;5598;48.648;8.908;2023-02-11T09:39:00;8.90;84.60
11089;DHT22;5598;48.648;8.908;2023-02-11T09:41:38;8.50;82.40
11089;DHT22;5598;48.648;8.908;2023-02-11T09:44:09;7.80;86.00
11089;DHT22;5598;48.648;8.908;2023-02-11T09:46:42;8.40;86.60
11089;DHT22;5598;48.648;8.908;2023-02-11T09:49:17;8.90;84.30
11089;DHT22;5598;48.648;8.908;2023-02-11T09:51:48;9.60;82.80
11089;DHT22;5598;48.648;8.908;2023-02-11T09:54:22;9.30;81.70
11089;DHT22;5598;48.648;8.908;2023-02-11T09:56:52;8.90;81.80
11089;DHT22;5598;48.648;8.908;2023-02-11T09:59:18;8.90;84.60
11089;DHT22;5598;48.648;8.908;2023-02-11T10:01:48;9.90;82.50
11089;DHT22;5598;48.648;8.908;2023-02-11T10:04:28;10.80;77.80
11089;DHT22;5598;48.648;8.908;2023-02-11T10:07:01;11.30;77.70
11089;DHT22;5598;48.648;8.908;2023-02-11T10:09:51;11.20;75.80
11089;DHT22;5598;48.648;8.908;2023-02-11T10:12:34;12.00;75.70
11089;DHT22;5598;48.648;8.908;2023-02-11T10:15:13;12.10;73.20
11089;DHT22;5598;48.648;8.908;2023-02-11T10:17:50;12.30;73.90
11089;DHT22;5598;48.648;8.908;2023-02-11T10:20:26;12.20;71.30
11089;DHT22;5598;48.648;8.908;2023-02-11T10:22:58;12.50;71.80
11089;DHT22;5598;48.648;8.908;2023-02-11T10:25:28;12.60;75.40
11089;DHT22;5598;48.648;8.908;2023-02-11T10:28:00;12.30;72.50
11089;DHT22;5598;48.648;8.908;2023-02-11T10:30:37;13.00;72.20
11089;DHT22;5598;48.648;8.908;2023-02-11T10:33:12;12.80;70.10
11089;DHT22;5598;48.648;8.908;2023-02-11T10:35:42;12.90;70.20
11089;DHT22;5598;48.648;8.908;2023-02-11T10:38:10;12.80;68.80
11089;DHT22;5598;48.648;8.908;2023-02-11T10:40:37;12.90;70.30
11089;DHT22;5598;48.648;8.908;2023-02-11T10:43:06;12.80;70.30
11089;DHT22;5598;48.648;8.908;2023-02-11T10:45:35;13.30;68.30
11089;DHT22;5598;48.648;8.908;2023-02-11T10:48:04;13.50;68.10
11089;DHT22;5598;48.648;8.908;2023-02-11T10:50:33;13.90;68.80
11089;DHT22;5598;48.648;8.908;2023-02-11T10:53:14;14.60;67.20
11089;DHT22;5598;48.648;8.908;2023-02-11T10:55:52;14.90;67.40
11089;DHT22;5598;48.648;8.908;2023-02-11T10:58:24;14.20;67.90
11089;DHT22;5598;48.648;8.908;2023-02-11T11:00:53;14.50;66.90
11089;DHT22;5598;48.648;8.908;2023-02-11T11:03:22;14.30;64.70
11089;DHT22;5598;48.648;8.908;2023-02-11T11:05:51;14.80;67.20
11089;DHT22;5598;48.648;8.908;2023-02-11T11:08:21;15.10;66.70
11089;DHT22;5598;48.648;8.908;2023-02-11T11:11:01;16.10;64.50
11089;DHT22;5598;48.648;8.908;2023-02-11T11:13:31;16.20;61.30
11089;DHT22;5598;48.648;8.908;2023-02-11T11:16:15;15.70;63.90
11089;DHT22;5598;48.648;8.908;2023-02-11T11:18:44;15.40;62.60
11089;DHT22;5598;48.648;8.908;2023-02-11T11:21:14;15.30;63.20
11089;DHT22;5598;48.648;8.908;2023-02-11T11:23:48;16.10;63.10
11089;DHT22;5598;48.648;8.908;2023-02-11T11:26:16;16.50;65.20
11089;DHT22;5598;48.648;8.908;2023-02-11T11:28:55;17.10;60.60
11089;DHT22;5598;48.648;8.908;2023-02-11T11:31:25;17.30;60.50
11089;DHT22;5598;48.648;8.908;2023-02-11T11:33:55;17.80;61.70
11089;DHT22;5598;48.648;8.908;2023-02-11T11:36:31;18.50;59.30
11089;DHT22;5598;48.648;8.908;2023-02-11T11:39:02;19.00;58.90
11089;DHT22;5598;48.648;8.908;2023-02-11T11:41:48;18.90;57.10
11089;DHT22;5598;48.648;8.908;2023-02-11T11:44:24;19.00;57.70
11089;DHT22;5598;48.648;8.908;2023-02-11T11:47:14;19.20;56.90
11089;DHT22;5598;48.648;8.908;2023-02-11T11:49:46;18.40;56.20
11089;DHT22;5598;48.648;8.908;2023-02-11T11:52:18;18.40;56.70
11089;DHT22;5598;48.648;8.908;2023-02-11T11:54:54;18.70;56.20
11089;DHT22;5598;48.648;8.908;2023-02-11T11:57:26;19.50;57.40
11089;DHT22;5598;48.648;8.908;2023-02-11T11:59:55;19.70;55.70
11089;DHT22;5598;48.648;8.908;2023-02-11T12:05:25;20.80;55.10
11089;DHT22;5598;48.648;8.908;2023-02-11T12:07:59;21.00;56.40
11089;DHT22;5598;48.648;8.908;2023-02-11T12:10:46;21.60;54.70
11089;DHT22;5598;48.648;8.908;2023-02-11T12:13:25;22.20;50.60
11089;DHT22;5598;48.648;8.908;2023-02-11T12:16:00;22.20;52.70
11089;DHT22;5598;48.648;8.908;2023-02-11T12:18:41;21.50;51.90
11089;DHT22;5598;48.648;8.908;2023-02-11T12:21:26;20.60;51.00
11089;DHT22;5598;48.648;8.908;2023-02-11T12:24:05;20.30;54.70
11089;DHT22;5598;48.648;8.908;2023-02-11T12:26:42;21.00;53.10
11089;DHT22;5598;48.648;8.908;2023-02-11T12:29:18;22.00;52.70
11089;DHT22;5598;48.648;8.908;2023-02-11T12:31:58;21.90;51.40
11089;DHT22;5598;48.648;8.908;2023-02-11T12:34:52;22.00;51.80
11089;DHT22;5598;48.648;8.908;2023-02-11T12:37:36;22.50;50.50
11089;DHT22;5598;48.648;8.908;2023-02-11T12:40:14;22.50;49.50
11089;DHT22;5598;48.648;8.908;2023-02-11T12:42:54;22.50;49.00
11089;DHT22;5598;48.648;8.908;2023-02-11T12:46:00;21.90;48.10
11089;DHT22;5598;48.648;8.908;2023-02-11T12:48:56;22.00;50.80
11089;DHT22;5598;48.648;8.908;2023-02-11T12:51:37;22.00;51.10
11089;DHT22;5598;48.648;8.908;2023-02-11T12:54:23;21.80;49.00
11089;DHT22;5598;48.648;8.908;2023-02-11T12:56:54;21.30;49.90
11089;DHT22;5598;48.648;8.908;2023-02-11T12:59:41;21.20;49.30
11089;DHT22;5598;48.648;8.908;2023-02-11T13:02:16;21.00;52.60
11089;DHT22;5598;48.648;8.908;2023-02-11T13:04:47;21.30;52.10
11089;DHT22;5598;48.648;8.908;2023-02-11T13:07:20;21.50;49.80
11089;DHT22;5598;48.648;8.908;2023-02-11T13:09:51;20.90;49.50
11089;DHT22;5598;48.648;8.908;2023-02-11T13:12:20;20.60;50.60
11089;DHT22;5598;48.648;8.908;2023-02-11T13:15:11;20.10;51.10
11089;DHT22;5598;48.648;8.908;2023-02-11T13:17:42;19.30;52.60
11089;DHT22;5598;48.648;8.908;2023-02-11T13:20:20;18.90;53.60
11089;DHT22;5598;48.648;8.908;2023-02-11T13:22:55;18.10;54.00
11089;DHT22;5598;48.648;8.908;2023-02-11T13:25:29;17.70;56.80
11089;DHT22;5598;48.648;8.908;2023-02-11T13:28:04;17.40;56.30
11089;DHT22;5598;48.648;8.908;2023-02-11T13:30:38;16.80;56.10
11089;DHT22;5598;48.648;8.908;2023-02-11T13:33:20;16.00;56.90
11089;DHT22;5598;48.648;8.908;2023-02-11T13:36:17;15.50;58.40
11089;DHT22;5598;48.648;8.908;2023-02-11T13:38:53;14.90;58.50
11089;DHT22;5598;48.648;8.908;2023-02-11T13:41:25;14.50;60.50
11089;DHT22;5598;48.648;8.908;2023-02-11T13:44:04;14.30;61.20
11089;DHT22;5598;48.648;8.908;2023-02-11T13:46:57;14.20;61.40
11089;DHT22;5598;48.648;8.908;2023-02-11T13:49:31;14.00;62.20
11089;DHT22;5598;48.648;8.908;2023-02-11T13:52:01;13.80;62.30
11089;DHT22;5598;48.648;8.908;2023-02-11T13:54:33;13.60;62.80
11089;DHT22;5598;48.648;8.908;2023-02-11T13:57:26;13.60;64.00
11089;DHT22;5598;48.648;8.908;2023-02-11T13:59:55;13.70;63.50
11089;DHT22;5598;48.648;8.908;2023-02-11T14:02:30;13.70;62.90
11089;DHT22;5598;48.648;8.908;2023-02-11T14:05:27;13.60;62.90
11089;DHT22;5598;48.648;8.908;2023-02-11T14:08:29;13.40;63.70
11089;DHT22;5598;48.648;8.908;2023-02-11T14:14:23;13.20;65.00
11089;DHT22;5598;48.648;8.908;2023-02-11T14:17:27;13.00;65.90
11089;DHT22;5598;48.648;8.908;2023-02-11T14:19:56;12.90;66.00
11089;DHT22;5598;48.648;8.908;2023-02-11T14:22:26;12.80;66.30
11089;DHT22;5598;48.648;8.908;2023-02-11T14:24:56;12.70;67.00
11089;DHT22;5598;48.648;8.908;2023-02-11T14:27:30;12.80;68.60
11089;DHT22;5598;48.648;8.908;2023-02-11T14:30:19;12.90;69.30
11089;DHT22;5598;48.648;8.908;2023-02-11T14:35:48;12.70;67.90
11089;DHT22;5598;48.648;8.908;2023-02-11T14:38:23;12.60;68.10
11089;DHT22;5598;48.648;8.908;2023-02-11T14:40:57;12.40;69.40
11089;DHT22;5598;48.648;8.908;2023-02-11T14:43:28;12.40;70.30
11089;DHT22;5598;48.648;8.908;2023-02-11T14:45:57;12.30;69.20
11089;DHT22;5598;48.648;8.908;2023-02-11T14:48:29;12.30;69.70
11089;DHT22;5598;48.648;8.908;2023-02-11T14:51:01;12.30;70.20
11089;DHT22;5598;48.648;8.908;2023-02-11T14:53:30;12.30;70.40
11089;DHT22;5598;48.648;8.908;2023-02-11T14:55:57;12.20;70.20
11089;DHT22;5598;48.648;8.908;2023-02-11T14:58:26;12.10;70.20
11089;DHT22;5598;48.648;8.908;2023-02-11T15:00:55;12.10;71.60
11089;DHT22;5598;48.648;8.908;2023-02-11T15:03:29;12.00;71.50
11089;DHT22;5598;48.648;8.908;2023-02-11T15:05:58;12.00;72.00
11089;DHT22;5598;48.648;8.908;2023-02-11T15:08:25;11.90;71.60
11089;DHT22;5598;48.648;8.908;2023-02-11T15:10:53;11.90;72.60
11089;DHT22;5598;48.648;8.908;2023-02-11T15:13:22;11.80;72.40
11089;DHT22;5598;48.648;8.908;2023-02-11T15:15:53;11.80;73.10
11089;DHT22;5598;48.648;8.908;2023-02-11T15:18:24;11.70;73.00
11089;DHT22;5598;48.648;8.908;2023-02-11T15:20:55;11.60;73.40
11089;DHT22;5598;48.648;8.908;2023-02-11T15:23:24;11.60;74.10
11089;DHT22;5598;48.648;8.908;2023-02-11T15:25:52;11.40;74.10
11089;DHT22;5598;48.648;8.908;2023-02-11T15:28:22;11.20;74.00
11089;DHT22;5598;48.648;8.908;2023-02-11T15:30:56;11.00;74.80
11089;DHT22;5598;48.648;8.908;2023-02-11T15:33:23;10.90;75.40
11089;DHT22;5598;48.648;8.908;2023-02-11T15:35:51;10.80;76.60
11089;DHT22;5598;48.648;8.908;2023-02-11T15:38:19;10.80;77.00
11089;DHT22;5598;48.648;8.908;2023-02-11T15:40:52;10.70;76.70
11089;DHT22;5598;48.648;8.908;2023-02-11T15:43:19;10.50;76.20
11089;DHT22;5598;48.648;8.908;2023-02-11T15:45:55;10.40;76.70
11089;DHT22;5598;48.648;8.908;2023-02-11T15:48:23;10.30;77.20
11089;DHT22;5598;48.648;8.908;2023-02-11T15:50:52;10.10;77.10
11089;DHT22;5598;48.648;8.908;2023-02-11T15:53:26;9.90;78.80
11089;DHT22;5598;48.648;8.908;2023-02-11T15:56:00;9.70;79.60
11089;DHT22;5598;48.648;8.908;2023-02-11T15:58:28;9.40;79.50
11089;DHT22;5598;48.648;8.908;2023-02-11T16:00:55;9.20;80.00
11089;DHT22;5598;48.648;8.908;2023-02-11T16:03:26;9.00;80.30
11089;DHT22;5598;48.648;8.908;2023-02-11T16:05:53;8.80;80.60
11089;DHT22;5598;48.648;8.908;2023-02-11T16:08:24;8.70;81.60
11089;DHT22;5598;48.648;8.908;2023-02-11T16:10:55;8.60;81.90
11089;DHT22;5598;48.648;8.908;2023-02-11T16:13:23;8.60;81.70
11089;DHT22;5598;48.648;8.908;2023-02-11T16:15:53;8.40;82.20
11089;DHT22;5598;48.648;8.908;2023-02-11T16:18:31;8.40;82.50
11089;DHT22;5598;48.648;8.908;2023-02-11T16:20:59;8.20;81.40
11089;DHT22;5598;48.648;8.908;2023-02-11T16:23:31;8.10;81.70